createdAt,value
2022-10-01T00:00:35.827Z,100311.35
2022-10-01T00:03:26.505Z,100315.05
2022-10-01T00:06:02.603Z,100318.16
2022-10-01T00:08:33.850Z,100318.64
2022-10-01T00:11:07.036Z,100318.35
2022-10-01T00:13:36.614Z,100313.85
2022-10-01T00:16:10.464Z,100315.88
2022-10-01T00:18:40.291Z,100320.83
2022-10-01T00:21:11.182Z,100325.21
2022-10-01T00:23:40.271Z,100326.63
2022-10-01T00:26:14.952Z,100323.20
2022-10-01T00:28:45.795Z,100322.88
2022-10-01T00:31:16.453Z,100322.02
2022-10-01T00:33:48.139Z,100320.24
2022-10-01T00:36:17.077Z,100320.80
2022-10-01T00:38:46.558Z,100326.49
2022-10-01T00:41:17.130Z,100338.14
2022-10-01T00:43:47.681Z,100340.38
2022-10-01T00:46:22.411Z,100339.33
2022-10-01T00:48:57.654Z,100334.77
2022-10-01T00:51:31.217Z,100333.90
2022-10-01T00:54:08.197Z,100330.89
2022-10-01T00:56:38.092Z,100323.59
2022-10-01T00:59:07.199Z,100320.02
2022-10-01T01:01:38.349Z,100315.39
2022-10-01T01:04:15.727Z,100311.98
2022-10-01T01:06:46.765Z,100310.86
2022-10-01T01:09:16.544Z,100312.98
2022-10-01T01:11:54.382Z,100314.40
2022-10-01T01:14:32.341Z,100314.98
2022-10-01T01:17:08.304Z,100319.20
2022-10-01T01:19:54.222Z,100320.76
2022-10-01T01:22:26.316Z,100320.04
2022-10-01T01:25:02.792Z,100319.77
2022-10-01T01:27:37.864Z,100323.67
2022-10-01T01:30:08.837Z,100327.15
2022-10-01T01:32:46.338Z,100324.84
2022-10-01T01:35:23.273Z,100326.86
2022-10-01T01:38:01.420Z,100327.30
2022-10-01T01:40:36.242Z,100325.52
2022-10-01T01:43:10.692Z,100325.77
2022-10-01T01:45:42.110Z,100326.86
2022-10-01T01:48:12.648Z,100330.30
2022-10-01T01:50:48.918Z,100334.02
2022-10-01T01:53:17.510Z,100336.75
2022-10-01T01:55:49.005Z,100336.69
2022-10-01T01:58:19.388Z,100339.45
2022-10-01T02:00:52.552Z,100337.77
2022-10-01T02:03:23.729Z,100333.63
2022-10-01T02:06:00.742Z,100335.03
2022-10-01T02:08:40.553Z,100343.34
2022-10-01T02:11:19.773Z,100351.38
2022-10-01T02:14:00.319Z,100350.01
2022-10-01T02:16:41.758Z,100348.47
2022-10-01T02:19:19.722Z,100345.98
2022-10-01T02:21:57.546Z,100344.38
2022-10-01T02:24:36.282Z,100341.79
2022-10-01T02:27:13.914Z,100343.59
2022-10-01T02:29:45.121Z,100354.13
2022-10-01T02:32:17.217Z,100346.78
2022-10-01T02:34:47.568Z,100342.20
2022-10-01T02:37:24.412Z,100333.67
2022-10-01T02:39:54.744Z,100329.73
2022-10-01T02:42:28.520Z,100329.46
2022-10-01T02:45:03.023Z,100324.05
2022-10-01T02:47:37.251Z,100314.77
2022-10-01T02:50:08.412Z,100316.75
2022-10-01T02:52:42.803Z,100313.13
2022-10-01T02:55:14.779Z,100312.07
2022-10-01T02:57:43.810Z,100314.17
2022-10-01T03:00:15.859Z,100313.92
2022-10-01T03:02:44.456Z,100301.82
2022-10-01T03:05:14.199Z,100304.21
2022-10-01T03:07:43.230Z,100302.55
2022-10-01T03:10:14.634Z,100298.55
2022-10-01T03:12:45.954Z,100293.33
2022-10-01T03:15:18.798Z,100287.48
2022-10-01T03:17:51.294Z,100282.20
2022-10-01T03:20:21.610Z,100283.94
2022-10-01T03:22:50.075Z,100281.73
2022-10-01T03:25:20.558Z,100276.23
2022-10-01T03:27:58.059Z,100270.98
2022-10-01T03:30:26.771Z,100265.84
2022-10-01T03:32:58.329Z,100267.86
2022-10-01T03:35:26.872Z,100276.42
2022-10-01T03:37:58.067Z,100282.34
2022-10-01T03:40:26.550Z,100282.65
2022-10-01T03:42:56.514Z,100291.77
2022-10-01T03:45:26.511Z,100297.28
2022-10-01T03:47:55.215Z,100299.48
2022-10-01T03:50:24.325Z,100299.94
2022-10-01T03:52:52.962Z,100307.05
2022-10-01T03:55:21.535Z,100305.45
2022-10-01T03:57:52.753Z,100309.66
2022-10-01T04:00:22.150Z,100308.61
2022-10-01T04:02:51.192Z,100308.67
2022-10-01T04:05:19.976Z,100310.84
2022-10-01T04:07:49.476Z,100314.34
2022-10-01T04:10:18.712Z,100310.21
2022-10-01T04:12:47.257Z,100301.64
2022-10-01T04:15:16.353Z,100307.36
2022-10-01T04:17:47.158Z,100311.44
2022-10-01T04:20:16.093Z,100311.88
2022-10-01T04:22:45.670Z,100314.55
2022-10-01T04:25:14.502Z,100309.36
2022-10-01T04:27:55.761Z,100301.75
2022-10-01T04:30:26.644Z,100298.21
2022-10-01T04:32:55.483Z,100297.77
2022-10-01T04:35:25.215Z,100299.86
2022-10-01T04:38:02.855Z,100296.20
2022-10-01T04:40:35.375Z,100289.08
2022-10-01T04:43:05.089Z,100289.34
2022-10-01T04:45:33.863Z,100287.89
2022-10-01T04:48:02.780Z,100286.94
2022-10-01T04:50:33.370Z,100289.30
2022-10-01T04:53:02.101Z,100291.73
2022-10-01T04:55:32.868Z,100287.51
2022-10-01T04:58:02.441Z,100294.61
2022-10-01T05:00:33.823Z,100295.84
2022-10-01T05:03:03.093Z,100295.75
2022-10-01T05:05:34.331Z,100291.29
2022-10-01T05:08:03.538Z,100293.30
2022-10-01T05:10:33.423Z,100295.70
2022-10-01T05:13:03.689Z,100293.94
2022-10-01T05:15:33.104Z,100294.02
2022-10-01T05:18:01.757Z,100296.69
2022-10-01T05:20:33.656Z,100297.48
2022-10-01T05:23:02.285Z,100301.45
2022-10-01T05:25:36.780Z,100302.87
2022-10-01T05:28:10.329Z,100299.23
2022-10-01T05:30:40.046Z,100297.81
2022-10-01T05:33:11.597Z,100300.90
2022-10-01T05:35:41.347Z,100301.61
2022-10-01T05:38:10.275Z,100304.37
2022-10-01T05:40:39.775Z,100305.91
2022-10-01T05:43:08.941Z,100303.39
2022-10-01T05:45:37.379Z,100306.06
2022-10-01T05:48:08.174Z,100304.48
2022-10-01T05:50:39.711Z,100305.79
2022-10-01T05:53:10.850Z,100303.48
2022-10-01T05:55:39.139Z,100305.15
2022-10-01T05:58:09.833Z,100305.21
2022-10-01T06:00:39.547Z,100307.58
2022-10-01T06:03:11.961Z,100305.30
2022-10-01T06:05:43.715Z,100305.55
2022-10-01T06:08:12.399Z,100308.67
2022-10-01T06:10:41.305Z,100301.54
2022-10-01T06:13:09.979Z,100303.95
2022-10-01T06:15:39.480Z,100302.22
2022-10-01T06:18:10.432Z,100300.17
2022-10-01T06:20:40.290Z,100298.10
2022-10-01T06:23:11.993Z,100298.50
2022-10-01T06:25:42.233Z,100295.49
2022-10-01T06:28:15.034Z,100291.17
2022-10-01T06:30:43.480Z,100290.88
2022-10-01T06:33:14.181Z,100293.10
2022-10-01T06:35:43.897Z,100290.36
2022-10-01T06:38:13.102Z,100289.04
2022-10-01T06:40:42.277Z,100289.52
2022-10-01T06:43:10.772Z,100288.40
2022-10-01T06:45:41.962Z,100277.02
2022-10-01T06:48:13.426Z,100276.77
2022-10-01T06:50:43.052Z,100278.35
2022-10-01T06:53:14.083Z,100277.18
2022-10-01T06:55:43.198Z,100277.49
2022-10-01T06:58:14.766Z,100279.09
2022-10-01T07:00:43.978Z,100277.60
2022-10-01T07:03:16.399Z,100274.14
2022-10-01T07:05:45.495Z,100275.40
2022-10-01T07:08:14.275Z,100274.48
2022-10-01T07:10:43.559Z,100280.63
2022-10-01T07:13:14.063Z,100279.67
2022-10-01T07:15:43.574Z,100280.98
2022-10-01T07:18:12.598Z,100274.89
2022-10-01T07:20:44.282Z,100272.69
2022-10-01T07:23:16.701Z,100272.80
2022-10-01T07:25:45.485Z,100271.92
2022-10-01T07:28:17.395Z,100272.05
2022-10-01T07:30:48.127Z,100273.66
2022-10-01T07:33:20.298Z,100278.45
2022-10-01T07:35:49.216Z,100272.89
2022-10-01T07:38:17.504Z,100270.19
2022-10-01T07:40:51.700Z,100270.70
2022-10-01T07:43:20.203Z,100266.39
2022-10-01T07:45:51.833Z,100264.20
2022-10-01T07:48:22.551Z,100265.81
2022-10-01T07:50:51.568Z,100268.42
2022-10-01T07:53:20.020Z,100268.11
2022-10-01T07:55:48.400Z,100272.33
2022-10-01T07:58:17.365Z,100279.08
2022-10-01T08:00:45.935Z,100280.13
2022-10-01T08:03:14.607Z,100282.23
2022-10-01T08:05:46.230Z,100281.96
2022-10-01T08:08:15.334Z,100285.58
2022-10-01T08:10:44.466Z,100283.86
2022-10-01T08:13:15.846Z,100283.53
2022-10-01T08:15:52.737Z,100280.52
2022-10-01T08:18:23.778Z,100276.92
2022-10-01T08:20:52.293Z,100274.17
2022-10-01T08:23:21.398Z,100270.89
2022-10-01T08:25:50.379Z,100270.84
2022-10-01T08:28:19.162Z,100271.48
2022-10-01T08:30:48.051Z,100266.60
2022-10-01T08:33:24.692Z,100261.77
2022-10-01T08:35:53.400Z,100264.95
2022-10-01T08:38:22.493Z,100261.99
2022-10-01T08:40:52.111Z,100254.20
2022-10-01T08:43:33.160Z,100252.77
2022-10-01T08:46:05.392Z,100248.20
2022-10-01T08:48:47.633Z,100244.83
2022-10-01T08:51:25.479Z,100248.89
2022-10-01T08:54:00.945Z,100251.30
2022-10-01T08:56:34.999Z,100249.11
2022-10-01T08:59:16.587Z,100243.07
2022-10-01T09:01:45.122Z,100241.14
2022-10-01T09:04:13.614Z,100234.23
2022-10-01T09:06:44.693Z,100231.98
2022-10-01T09:09:37.136Z,100233.51
2022-10-01T09:12:20.625Z,100229.70
2022-10-01T09:15:15.169Z,100223.02
2022-10-01T09:18:02.004Z,100222.63
2022-10-01T09:20:36.446Z,100219.52
2022-10-01T09:23:18.302Z,100221.00
2022-10-01T09:25:50.152Z,100217.02
2022-10-01T09:28:22.225Z,100217.73
2022-10-01T09:30:56.388Z,100211.79
2022-10-01T09:33:33.016Z,100207.73
2022-10-01T09:36:13.111Z,100211.14
2022-10-01T09:38:43.835Z,100212.78
2022-10-01T09:41:14.216Z,100208.89
2022-10-01T09:43:44.608Z,100209.45
2022-10-01T09:46:16.667Z,100212.84
2022-10-01T09:48:56.064Z,100207.46
2022-10-01T09:51:29.453Z,100208.89
2022-10-01T09:54:03.779Z,100203.80
2022-10-01T09:56:41.793Z,100202.79
2022-10-01T09:59:17.234Z,100201.79
2022-10-01T10:01:49.745Z,100197.84
2022-10-01T10:04:20.842Z,100196.02
2022-10-01T10:06:50.157Z,100193.40
2022-10-01T10:09:26.127Z,100189.62
2022-10-01T10:11:56.118Z,100188.98
2022-10-01T10:14:31.780Z,100195.45
2022-10-01T10:17:05.844Z,100194.58
2022-10-01T10:19:34.963Z,100194.02
2022-10-01T10:22:13.313Z,100190.15
2022-10-01T10:24:46.310Z,100185.45
2022-10-01T10:27:26.272Z,100178.58
2022-10-01T10:30:08.477Z,100175.63
2022-10-01T10:32:37.198Z,100168.56
2022-10-01T10:35:12.826Z,100162.94
2022-10-01T10:37:48.734Z,100157.38
2022-10-01T10:40:20.339Z,100154.13
2022-10-01T10:42:50.640Z,100145.84
2022-10-01T10:45:30.419Z,100143.13
2022-10-01T10:47:59.400Z,100138.02
2022-10-01T10:50:33.484Z,100132.63
2022-10-01T10:53:19.256Z,100127.70
2022-10-01T10:55:56.042Z,100121.81
2022-10-01T10:58:28.289Z,100118.63
2022-10-01T11:01:01.102Z,100114.79
2022-10-01T11:03:32.575Z,100115.42
2022-10-01T11:06:11.089Z,100113.28
2022-10-01T11:08:41.054Z,100100.91
2022-10-01T11:11:27.225Z,100093.09
2022-10-01T11:14:07.833Z,100088.56
2022-10-01T11:17:04.489Z,100084.15
2022-10-01T11:19:51.806Z,100081.21
2022-10-01T11:22:35.885Z,100084.36
2022-10-01T11:25:25.315Z,100071.17
2022-10-01T11:28:03.219Z,100069.77
2022-10-01T11:30:41.678Z,100063.06
2022-10-01T11:33:22.818Z,100055.12
2022-10-01T11:36:01.258Z,100048.23
2022-10-01T11:38:50.041Z,100043.49
2022-10-01T11:41:21.888Z,100038.66
2022-10-01T11:43:54.267Z,100028.38
2022-10-01T11:46:48.185Z,100017.40
2022-10-01T11:49:31.495Z,100010.24
2022-10-01T11:52:08.936Z,100008.40
2022-10-01T11:54:56.077Z,100002.94
2022-10-01T11:57:44.429Z,99999.21
2022-10-01T12:00:15.350Z,99997.62
2022-10-01T12:02:52.549Z,99996.38
2022-10-01T12:05:25.786Z,99996.75
2022-10-01T12:07:58.990Z,99992.92
2022-10-01T12:10:38.757Z,99991.36
2022-10-01T12:13:16.287Z,99986.02
2022-10-01T12:15:49.047Z,99983.48
2022-10-01T12:18:25.275Z,99983.89
2022-10-01T12:20:57.513Z,99981.08
2022-10-01T12:23:32.396Z,99979.14
2022-10-01T12:26:13.394Z,99979.50
2022-10-01T12:28:55.580Z,99973.42
2022-10-01T12:31:33.286Z,99972.61
2022-10-01T12:34:13.082Z,99968.77
2022-10-01T12:36:53.754Z,99963.63
2022-10-01T12:39:34.633Z,99953.87
2022-10-01T12:42:30.758Z,99951.05
2022-10-01T12:45:09.889Z,99952.73
2022-10-01T12:47:47.789Z,99949.04
2022-10-01T12:50:26.575Z,99949.02
2022-10-01T12:53:24.180Z,99945.95
2022-10-01T12:56:12.469Z,99940.00
2022-10-01T12:58:54.468Z,99935.41
2022-10-01T13:01:36.003Z,99928.20
2022-10-01T13:04:48.744Z,99928.25
2022-10-01T13:07:33.250Z,99925.52
2022-10-01T13:10:15.244Z,99925.93
2022-10-01T13:13:01.761Z,99923.34
2022-10-01T13:15:34.520Z,99923.26
2022-10-01T13:18:12.329Z,99920.00
2022-10-01T13:20:53.610Z,99919.55
2022-10-01T13:23:30.902Z,99917.66
2022-10-01T13:26:08.406Z,99911.60
2022-10-01T13:28:54.398Z,99908.88
2022-10-01T13:31:35.988Z,99905.23
2022-10-01T13:34:35.548Z,99908.51
2022-10-01T13:37:18.258Z,99901.18
2022-10-01T13:39:50.421Z,99896.33
2022-10-01T13:42:25.556Z,99894.14
2022-10-01T13:44:59.287Z,99891.64
2022-10-01T13:47:28.368Z,99890.86
2022-10-01T13:50:03.080Z,99888.42
2022-10-01T13:52:33.213Z,99891.36
2022-10-01T13:55:02.427Z,99890.91
2022-10-01T13:57:34.542Z,99892.42
2022-10-01T14:00:21.029Z,99885.42
2022-10-01T14:03:04.842Z,99883.48
2022-10-01T14:05:38.353Z,99876.33
2022-10-01T14:08:16.639Z,99865.55
2022-10-01T14:11:09.535Z,99859.66
2022-10-01T14:14:06.618Z,99854.23
2022-10-01T14:16:40.245Z,99849.98
2022-10-01T14:19:10.147Z,99849.67
2022-10-01T14:21:58.554Z,99851.49
2022-10-01T14:24:40.806Z,99848.61
2022-10-01T14:27:18.944Z,99851.77
2022-10-01T14:30:00.491Z,99848.45
2022-10-01T14:32:38.370Z,99846.71
2022-10-01T14:35:23.027Z,99840.60
2022-10-01T14:37:56.952Z,99835.52
2022-10-01T14:40:31.888Z,99834.64
2022-10-01T14:43:03.638Z,99833.08
2022-10-01T14:45:35.374Z,99830.95
2022-10-01T14:48:09.595Z,99833.58
2022-10-01T14:50:39.560Z,99828.05
2022-10-01T14:53:17.680Z,99824.54
2022-10-01T14:55:47.993Z,99816.59
2022-10-01T14:58:26.519Z,99814.42
2022-10-01T15:00:57.167Z,99812.70
2022-10-01T15:03:26.166Z,99811.42
2022-10-01T15:06:03.640Z,99804.16
2022-10-01T15:08:40.455Z,99801.92
2022-10-01T15:11:13.915Z,99797.41
2022-10-01T15:13:44.535Z,99797.31
2022-10-01T15:16:16.414Z,99795.75
2022-10-01T15:18:49.972Z,99792.44
2022-10-01T15:21:23.034Z,99787.31
2022-10-01T15:23:55.074Z,99782.74
2022-10-01T15:26:27.034Z,99779.83
2022-10-01T15:29:03.531Z,99777.70
2022-10-01T15:31:37.368Z,99775.81
2022-10-01T15:34:10.714Z,99772.98
2022-10-01T15:36:41.570Z,99774.19
2022-10-01T15:39:25.062Z,99768.12
2022-10-01T15:41:54.380Z,99765.80
2022-10-01T15:44:45.984Z,99767.17
2022-10-01T15:47:35.394Z,99765.27
2022-10-01T15:50:18.665Z,99762.49
2022-10-01T15:52:51.638Z,99764.98
2022-10-01T15:55:27.394Z,99762.02
2022-10-01T15:58:01.574Z,99763.10
2022-10-01T16:00:37.761Z,99757.60
2022-10-01T16:03:09.692Z,99753.03
2022-10-01T16:05:47.872Z,99751.77
2022-10-01T16:08:22.344Z,99747.40
2022-10-01T16:11:16.017Z,99740.86
2022-10-01T16:13:46.287Z,99738.05
2022-10-01T16:16:28.164Z,99735.48
2022-10-01T16:19:19.735Z,99722.13
2022-10-01T16:22:14.433Z,99721.90
2022-10-01T16:24:48.971Z,99714.59
2022-10-01T16:27:20.177Z,99704.45
2022-10-01T16:30:05.110Z,99702.44
2022-10-01T16:32:35.457Z,99695.31
2022-10-01T16:35:18.489Z,99694.30
2022-10-01T16:37:49.635Z,99692.23
2022-10-01T16:40:19.862Z,99698.48
2022-10-01T16:42:50.011Z,99705.98
2022-10-01T16:45:22.349Z,99707.79
2022-10-01T16:47:52.724Z,99706.41
2022-10-01T16:50:22.791Z,99705.67
2022-10-01T16:52:54.002Z,99702.30
2022-10-01T16:55:24.682Z,99692.52
2022-10-01T16:57:54.394Z,99691.32
2022-10-01T17:00:36.793Z,99689.48
2022-10-01T17:03:09.302Z,99686.83
2022-10-01T17:05:39.101Z,99683.11
2022-10-01T17:08:11.082Z,99679.13
2022-10-01T17:10:43.468Z,99678.04
2022-10-01T17:13:14.266Z,99670.02
2022-10-01T17:15:43.612Z,99664.21
2022-10-01T17:18:13.193Z,99660.27
2022-10-01T17:20:42.366Z,99663.23
2022-10-01T17:23:12.575Z,99667.20
2022-10-01T17:25:42.505Z,99671.02
2022-10-01T17:28:19.295Z,99673.01
2022-10-01T17:30:49.818Z,99664.09
2022-10-01T17:33:20.018Z,99663.23
2022-10-01T17:35:51.185Z,99662.62
2022-10-01T17:38:22.657Z,99663.33
2022-10-01T17:40:56.364Z,99664.70
2022-10-01T17:43:26.318Z,99664.39
2022-10-01T17:46:00.442Z,99662.45
2022-10-01T17:48:30.919Z,99653.55
2022-10-01T17:51:01.653Z,99651.67
2022-10-01T17:53:39.733Z,99649.23
2022-10-01T17:56:14.757Z,99652.48
2022-10-01T17:58:45.877Z,99653.36
2022-10-01T18:01:20.491Z,99655.60
2022-10-01T18:03:55.731Z,99656.09
2022-10-01T18:06:25.316Z,99654.55
2022-10-01T18:08:56.252Z,99653.50
2022-10-01T18:11:27.943Z,99647.22
2022-10-01T18:13:59.795Z,99645.82
2022-10-01T18:21:19.969Z,99634.76
2022-10-01T18:23:48.645Z,99631.95
2022-10-01T18:26:18.491Z,99631.19
2022-10-01T18:28:47.605Z,99630.55
2022-10-01T18:31:22.742Z,99629.42
2022-10-01T18:33:53.655Z,99626.23
2022-10-01T18:36:31.680Z,99630.16
2022-10-01T18:39:17.190Z,99621.92
2022-10-01T18:41:46.582Z,99619.77
2022-10-01T18:44:20.318Z,99614.62
2022-10-01T18:47:14.313Z,99612.43
2022-10-01T18:50:07.008Z,99617.55
2022-10-01T18:52:47.341Z,99612.17
2022-10-01T18:55:40.433Z,99605.36
2022-10-01T18:58:28.734Z,99605.18
2022-10-01T19:01:06.364Z,99603.23
2022-10-01T19:04:00.387Z,99602.14
2022-10-01T19:06:55.226Z,99598.45
2022-10-01T19:09:56.212Z,99600.20
2022-10-01T19:12:38.964Z,99594.84
2022-10-01T19:15:20.042Z,99593.13
2022-10-01T19:17:57.065Z,99591.38
2022-10-01T19:20:46.191Z,99592.29
2022-10-01T19:23:49.939Z,99592.73
2022-10-01T19:26:29.103Z,99596.34
2022-10-01T19:29:18.312Z,99593.17
2022-10-01T19:31:54.022Z,99588.90
2022-10-01T19:34:30.738Z,99581.53
2022-10-01T19:37:05.970Z,99573.79
2022-10-01T19:39:38.981Z,99564.66
2022-10-01T19:42:14.030Z,99562.80
2022-10-01T19:44:48.979Z,99556.50
2022-10-01T19:47:28.341Z,99557.30
2022-10-01T19:50:12.089Z,99563.40
2022-10-01T19:52:45.106Z,99566.44
2022-10-01T19:55:17.017Z,99568.90
2022-10-01T19:57:46.665Z,99569.65
2022-10-01T20:00:19.157Z,99573.17
2022-10-01T20:02:54.172Z,99569.67
2022-10-01T20:05:30.315Z,99568.25
2022-10-01T20:08:08.856Z,99569.30
2022-10-01T20:10:48.751Z,99566.23
2022-10-01T20:13:33.380Z,99568.01
2022-10-01T20:16:12.048Z,99566.71
2022-10-01T20:18:51.011Z,99562.70
2022-10-01T20:21:31.296Z,99565.08
2022-10-01T20:24:10.340Z,99566.00
2022-10-01T20:26:46.414Z,99564.14
2022-10-01T20:29:26.341Z,99560.46
2022-10-01T20:32:02.589Z,99561.96
2022-10-01T20:34:44.307Z,99564.17
2022-10-01T20:37:39.758Z,99557.95
2022-10-01T20:40:18.522Z,99557.88
2022-10-01T20:42:50.915Z,99554.40
2022-10-01T20:45:24.731Z,99558.52
2022-10-01T20:47:58.267Z,99556.68
2022-10-01T20:50:34.698Z,99555.36
2022-10-01T20:53:15.290Z,99553.80
2022-10-01T20:55:49.210Z,99552.33
2022-10-01T20:58:23.427Z,99554.39
2022-10-01T21:00:59.915Z,99551.92
2022-10-01T21:03:34.359Z,99547.77
2022-10-01T21:06:10.623Z,99562.73
2022-10-01T21:08:47.371Z,99582.60
2022-10-01T21:11:26.524Z,99591.33
2022-10-01T21:14:04.661Z,99595.79
2022-10-01T21:16:51.157Z,99603.81
2022-10-01T21:19:39.882Z,99611.21
2022-10-01T21:22:14.337Z,99609.89
2022-10-01T21:24:55.974Z,99604.86
2022-10-01T21:27:45.429Z,99603.87
2022-10-01T21:30:20.987Z,99607.44
2022-10-01T21:33:17.902Z,99611.84
2022-10-01T21:35:53.730Z,99608.46
2022-10-01T21:38:39.169Z,99606.01
2022-10-01T21:41:27.257Z,99606.02
2022-10-01T21:44:18.964Z,99606.89
2022-10-01T21:46:55.017Z,99608.93
2022-10-01T21:49:36.726Z,99609.36
2022-10-01T21:52:18.800Z,99612.71
2022-10-01T21:55:15.546Z,99613.14
2022-10-01T21:58:07.991Z,99609.78
2022-10-01T22:00:36.507Z,99608.80
2022-10-01T22:03:19.953Z,99611.35
2022-10-01T22:05:57.267Z,99612.52
2022-10-01T22:08:43.517Z,99615.41
2022-10-01T22:11:17.343Z,99615.04
2022-10-01T22:13:51.022Z,99612.34
2022-10-01T22:16:22.136Z,99612.30
2022-10-01T22:18:55.745Z,99611.84
2022-10-01T22:21:34.153Z,99610.76
2022-10-01T22:24:04.240Z,99618.80
2022-10-01T22:26:39.494Z,99613.73
2022-10-01T22:29:14.503Z,99621.05
2022-10-01T22:31:46.157Z,99626.21
2022-10-01T22:34:19.927Z,99621.78
2022-10-01T22:36:54.414Z,99617.27
2022-10-01T22:39:26.971Z,99619.09
2022-10-01T22:42:04.715Z,99620.13
2022-10-01T22:44:33.649Z,99619.39
2022-10-01T22:47:31.227Z,99620.46
2022-10-01T22:50:17.001Z,99622.45
2022-10-01T22:53:03.162Z,99622.27
2022-10-01T22:55:47.700Z,99625.69
2022-10-01T22:58:31.873Z,99628.33
2022-10-01T23:01:06.433Z,99632.40
2022-10-01T23:03:49.563Z,99629.60
2022-10-01T23:06:27.973Z,99635.67
2022-10-01T23:09:03.526Z,99636.29
2022-10-01T23:11:46.293Z,99633.58
2022-10-01T23:14:32.015Z,99630.98
2022-10-01T23:17:06.751Z,99630.17
2022-10-01T23:19:46.907Z,99632.55
2022-10-01T23:22:32.901Z,99630.94
2022-10-01T23:25:20.134Z,99633.95
2022-10-01T23:28:06.385Z,99636.50
2022-10-01T23:30:47.891Z,99634.04
2022-10-01T23:33:43.111Z,99634.85
2022-10-01T23:36:27.364Z,99642.02
2022-10-01T23:39:38.708Z,99639.06
2022-10-01T23:42:17.155Z,99639.98
2022-10-01T23:44:51.650Z,99640.03
2022-10-01T23:47:25.603Z,99640.11
2022-10-01T23:49:59.718Z,99641.39
2022-10-01T23:52:36.930Z,99642.98
2022-10-01T23:55:33.646Z,99644.91
2022-10-01T23:58:03.770Z,99643.38
